sensor_id;sensor_type;location;lat;lon;timestamp;pressure;altitude;pressure_sealevel;temperature;humidity
35655;BME280;21773;50.010;19.972;2022-07-06T00:00:19;98809.22;;;27.84;47.38
35655;BME280;21773;50.010;19.972;2022-07-06T00:03:23;98812.00;;;27.84;47.73
35655;BME280;21773;50.010;19.972;2022-07-06T00:06:28;98814.09;;;27.87;47.80
35655;BME280;21773;50.010;19.972;2022-07-06T00:09:32;98818.69;;;27.83;47.86
35655;BME280;21773;50.010;19.972;2022-07-06T00:12:36;98814.84;;;27.75;48.11
35655;BME280;21773;50.010;19.972;2022-07-06T00:15:40;98813.53;;;27.73;47.87
35655;BME280;21773;50.010;19.972;2022-07-06T00:18:43;98804.97;;;27.66;48.03
35655;BME280;21773;50.010;19.972;2022-07-06T00:21:48;98815.88;;;27.62;48.60
35655;BME280;21773;50.010;19.972;2022-07-06T00:24:52;98809.41;;;27.58;48.78
35655;BME280;21773;50.010;19.972;2022-07-06T00:27:55;98809.75;;;27.48;48.88
35655;BME280;21773;50.010;19.972;2022-07-06T00:30:59;98805.72;;;27.37;49.10
35655;BME280;21773;50.010;19.972;2022-07-06T00:34:02;98805.94;;;27.32;49.31
35655;BME280;21773;50.010;19.972;2022-07-06T00:37:07;98796.66;;;27.28;49.28
35655;BME280;21773;50.010;19.972;2022-07-06T00:40:12;98804.97;;;27.28;49.09
35655;BME280;21773;50.010;19.972;2022-07-06T00:43:15;98803.06;;;27.20;49.48
35655;BME280;21773;50.010;19.972;2022-07-06T00:46:19;98795.81;;;27.06;49.72
35655;BME280;21773;50.010;19.972;2022-07-06T00:49:23;98794.50;;;27.04;50.04
35655;BME280;21773;50.010;19.972;2022-07-06T00:52:48;98799.53;;;27.10;49.87
35655;BME280;21773;50.010;19.972;2022-07-06T00:55:51;98800.97;;;27.17;49.59
35655;BME280;21773;50.010;19.972;2022-07-06T00:58:55;98800.00;;;27.12;49.46
35655;BME280;21773;50.010;19.972;2022-07-06T01:01:58;98799.22;;;27.03;49.72
35655;BME280;21773;50.010;19.972;2022-07-06T01:05:04;98798.13;;;26.96;49.98
35655;BME280;21773;50.010;19.972;2022-07-06T01:08:10;98797.34;;;26.87;50.34
35655;BME280;21773;50.010;19.972;2022-07-06T01:11:14;98799.63;;;26.76;50.38
35655;BME280;21773;50.010;19.972;2022-07-06T01:14:17;98799.66;;;26.67;50.43
35655;BME280;21773;50.010;19.972;2022-07-06T01:17:22;98796.56;;;26.60;50.64
35655;BME280;21773;50.010;19.972;2022-07-06T01:20:27;98802.44;;;26.50;50.75
35655;BME280;21773;50.010;19.972;2022-07-06T01:23:32;98790.09;;;26.39;51.01
35655;BME280;21773;50.010;19.972;2022-07-06T01:26:35;98799.38;;;26.43;51.29
35655;BME280;21773;50.010;19.972;2022-07-06T01:29:39;98803.91;;;26.39;51.57
35655;BME280;21773;50.010;19.972;2022-07-06T01:32:43;98797.59;;;26.30;51.85
35655;BME280;21773;50.010;19.972;2022-07-06T01:35:49;98804.75;;;26.22;52.24
35655;BME280;21773;50.010;19.972;2022-07-06T01:38:53;98803.44;;;26.11;52.46
35655;BME280;21773;50.010;19.972;2022-07-06T01:41:57;98805.38;;;26.11;52.31
35655;BME280;21773;50.010;19.972;2022-07-06T01:45:04;98801.81;;;26.10;52.30
35655;BME280;21773;50.010;19.972;2022-07-06T01:48:08;98802.31;;;26.12;52.70
35655;BME280;21773;50.010;19.972;2022-07-06T01:51:13;98802.81;;;26.14;52.51
35655;BME280;21773;50.010;19.972;2022-07-06T01:54:20;98807.16;;;26.15;52.48
35655;BME280;21773;50.010;19.972;2022-07-06T01:57:23;98803.13;;;26.13;52.60
35655;BME280;21773;50.010;19.972;2022-07-06T02:00:27;98810.59;;;26.12;52.62
35655;BME280;21773;50.010;19.972;2022-07-06T02:03:30;98817.25;;;26.11;52.86
35655;BME280;21773;50.010;19.972;2022-07-06T02:06:36;98814.97;;;26.13;53.04
35655;BME280;21773;50.010;19.972;2022-07-06T02:09:41;98820.66;;;26.17;52.88
35655;BME280;21773;50.010;19.972;2022-07-06T02:12:44;98810.28;;;26.14;52.61
35655;BME280;21773;50.010;19.972;2022-07-06T02:15:48;98803.44;;;26.11;52.88
35655;BME280;21773;50.010;19.972;2022-07-06T02:18:51;98802.97;;;26.09;52.79
35655;BME280;21773;50.010;19.972;2022-07-06T02:21:56;98804.91;;;26.09;52.99
35655;BME280;21773;50.010;19.972;2022-07-06T02:25:00;98801.81;;;26.10;52.84
35655;BME280;21773;50.010;19.972;2022-07-06T02:28:04;98801.66;;;26.07;52.82
35655;BME280;21773;50.010;19.972;2022-07-06T02:31:07;98805.22;;;26.07;52.40
35655;BME280;21773;50.010;19.972;2022-07-06T02:34:11;98803.91;;;26.05;52.61
35655;BME280;21773;50.010;19.972;2022-07-06T02:37:16;98801.81;;;26.02;52.77
35655;BME280;21773;50.010;19.972;2022-07-06T02:40:19;98806.88;;;26.00;52.96
35655;BME280;21773;50.010;19.972;2022-07-06T02:43:23;98805.22;;;25.99;52.83
35655;BME280;21773;50.010;19.972;2022-07-06T02:46:27;98811.06;;;25.97;52.95
35655;BME280;21773;50.010;19.972;2022-07-06T02:49:30;98807.50;;;25.97;53.07
35655;BME280;21773;50.010;19.972;2022-07-06T02:52:35;98816.59;;;25.97;52.88
35655;BME280;21773;50.010;19.972;2022-07-06T02:55:44;98818.06;;;25.95;52.92
35655;BME280;21773;50.010;19.972;2022-07-06T02:58:48;98821.16;;;25.93;53.11
35655;BME280;21773;50.010;19.972;2022-07-06T03:01:51;98824.22;;;25.92;53.22
35655;BME280;21773;50.010;19.972;2022-07-06T03:04:56;98819.84;;;25.91;53.22
35655;BME280;21773;50.010;19.972;2022-07-06T03:08:02;98826.50;;;25.90;53.30
35655;BME280;21773;50.010;19.972;2022-07-06T03:11:05;98829.28;;;25.90;53.55
35655;BME280;21773;50.010;19.972;2022-07-06T03:14:09;98828.94;;;25.91;53.11
35655;BME280;21773;50.010;19.972;2022-07-06T03:17:16;98828.63;;;25.93;53.70
35655;BME280;21773;50.010;19.972;2022-07-06T03:20:21;98836.59;;;25.94;53.80
35655;BME280;21773;50.010;19.972;2022-07-06T03:23:27;98819.84;;;25.99;53.69
35655;BME280;21773;50.010;19.972;2022-07-06T03:26:31;98830.41;;;26.06;53.56
35655;BME280;21773;50.010;19.972;2022-07-06T03:29:35;98838.88;;;26.18;52.88
35655;BME280;21773;50.010;19.972;2022-07-06T03:32:39;98840.16;;;26.20;53.08
35655;BME280;21773;50.010;19.972;2022-07-06T03:35:44;98851.09;;;26.25;51.74
35655;BME280;21773;50.010;19.972;2022-07-06T03:38:49;98849.63;;;26.28;52.24
35655;BME280;21773;50.010;19.972;2022-07-06T03:41:52;98849.13;;;26.35;52.03
35655;BME280;21773;50.010;19.972;2022-07-06T03:44:56;98848.81;;;26.36;51.79
35655;BME280;21773;50.010;19.972;2022-07-06T03:48:01;98851.56;;;26.36;52.06
35655;BME280;21773;50.010;19.972;2022-07-06T03:51:06;98849.94;;;26.35;52.26
35655;BME280;21773;50.010;19.972;2022-07-06T03:54:11;98844.59;;;26.39;52.26
35655;BME280;21773;50.010;19.972;2022-07-06T03:57:14;98844.25;;;26.40;52.00
35655;BME280;21773;50.010;19.972;2022-07-06T04:00:19;98848.78;;;26.45;51.04
35655;BME280;21773;50.010;19.972;2022-07-06T04:03:33;98841.47;;;26.49;51.24
35655;BME280;21773;50.010;19.972;2022-07-06T04:06:37;98839.69;;;26.53;50.83
35655;BME280;21773;50.010;19.972;2022-07-06T04:09:43;98848.47;;;26.55;51.04
35655;BME280;21773;50.010;19.972;2022-07-06T04:12:47;98848.63;;;26.58;51.17
35655;BME280;21773;50.010;19.972;2022-07-06T04:15:52;98847.31;;;26.64;51.22
35655;BME280;21773;50.010;19.972;2022-07-06T04:18:59;98854.13;;;26.76;50.90
35655;BME280;21773;50.010;19.972;2022-07-06T04:22:03;98856.84;;;26.84;50.84
35655;BME280;21773;50.010;19.972;2022-07-06T04:25:13;98857.53;;;26.90;49.82
35655;BME280;21773;50.010;19.972;2022-07-06T04:28:17;98857.50;;;26.98;49.54
35655;BME280;21773;50.010;19.972;2022-07-06T04:31:21;98865.63;;;27.12;49.64
35655;BME280;21773;50.010;19.972;2022-07-06T04:34:26;98874.88;;;27.16;49.27
35655;BME280;21773;50.010;19.972;2022-07-06T04:37:30;98862.19;;;27.15;47.98
35655;BME280;21773;50.010;19.972;2022-07-06T04:40:35;98886.25;;;27.23;48.47
35655;BME280;21773;50.010;19.972;2022-07-06T04:43:42;98893.53;;;27.28;48.44
35655;BME280;21773;50.010;19.972;2022-07-06T04:46:50;98888.66;;;27.33;48.16
35655;BME280;21773;50.010;19.972;2022-07-06T04:49:55;98896.78;;;27.38;47.10
35655;BME280;21773;50.010;19.972;2022-07-06T04:52:59;98901.81;;;27.45;47.11
35655;BME280;21773;50.010;19.972;2022-07-06T04:56:06;98910.91;;;27.54;46.88
35655;BME280;21773;50.010;19.972;2022-07-06T04:59:12;98877.38;;;27.38;46.87
35655;BME280;21773;50.010;19.972;2022-07-06T05:02:16;98909.22;;;27.62;46.23
35655;BME280;21773;50.010;19.972;2022-07-06T05:05:20;98912.78;;;27.71;46.36
35655;BME280;21773;50.010;19.972;2022-07-06T05:08:25;98906.38;;;27.79;46.28
35655;BME280;21773;50.010;19.972;2022-07-06T05:11:30;98908.78;;;27.89;45.50
35655;BME280;21773;50.010;19.972;2022-07-06T05:14:33;98916.22;;;27.97;45.03
35655;BME280;21773;50.010;19.972;2022-07-06T05:17:39;98914.88;;;28.03;45.29
35655;BME280;21773;50.010;19.972;2022-07-06T05:20:44;98916.47;;;28.13;44.78
35655;BME280;21773;50.010;19.972;2022-07-06T05:23:47;98927.50;;;28.21;44.22
35655;BME280;21773;50.010;19.972;2022-07-06T05:26:52;98934.81;;;28.26;44.92
35655;BME280;21773;50.010;19.972;2022-07-06T05:29:56;98924.66;;;28.30;44.60
35655;BME280;21773;50.010;19.972;2022-07-06T05:33:00;98923.50;;;28.31;44.93
35655;BME280;21773;50.010;19.972;2022-07-06T05:36:04;98930.81;;;28.35;44.22
35655;BME280;21773;50.010;19.972;2022-07-06T05:39:08;98928.34;;;28.42;44.41
35655;BME280;21773;50.010;19.972;2022-07-06T05:42:13;98929.41;;;28.50;43.83
35655;BME280;21773;50.010;19.972;2022-07-06T05:45:18;98922.19;;;28.58;44.12
35655;BME280;21773;50.010;19.972;2022-07-06T05:48:21;98914.91;;;28.65;43.97
35655;BME280;21773;50.010;19.972;2022-07-06T05:51:42;98919.75;;;28.77;43.37
35655;BME280;21773;50.010;19.972;2022-07-06T05:54:45;98924.88;;;28.87;42.59
35655;BME280;21773;50.010;19.972;2022-07-06T05:57:50;98931.03;;;28.93;42.51
35655;BME280;21773;50.010;19.972;2022-07-06T06:00:56;98925.59;;;28.96;42.28
35655;BME280;21773;50.010;19.972;2022-07-06T06:04:00;98934.84;;;29.00;42.14
35655;BME280;21773;50.010;19.972;2022-07-06T06:07:03;98927.69;;;28.99;41.37
35655;BME280;21773;50.010;19.972;2022-07-06T06:10:09;98932.56;;;29.02;42.02
35655;BME280;21773;50.010;19.972;2022-07-06T06:13:15;98925.84;;;29.03;41.80
35655;BME280;21773;50.010;19.972;2022-07-06T06:16:18;98930.50;;;29.11;41.48
35655;BME280;21773;50.010;19.972;2022-07-06T06:19:22;98925.19;;;29.18;41.40
35655;BME280;21773;50.010;19.972;2022-07-06T06:22:25;98926.47;;;29.21;41.24
35655;BME280;21773;50.010;19.972;2022-07-06T06:25:30;98936.22;;;29.27;40.39
35655;BME280;21773;50.010;19.972;2022-07-06T06:28:35;98937.00;;;29.27;39.71
35655;BME280;21773;50.010;19.972;2022-07-06T06:31:39;98939.44;;;29.29;40.42
35655;BME280;21773;50.010;19.972;2022-07-06T06:34:43;98941.59;;;29.32;40.06
35655;BME280;21773;50.010;19.972;2022-07-06T06:37:46;98937.41;;;29.38;39.46
35655;BME280;21773;50.010;19.972;2022-07-06T06:40:49;98942.75;;;29.43;39.83
35655;BME280;21773;50.010;19.972;2022-07-06T06:43:54;98943.81;;;29.51;40.00
35655;BME280;21773;50.010;19.972;2022-07-06T06:47:03;98945.56;;;29.55;39.18
35655;BME280;21773;50.010;19.972;2022-07-06T06:50:07;98944.63;;;29.63;39.39
35655;BME280;21773;50.010;19.972;2022-07-06T06:53:11;98946.38;;;29.68;38.44
35655;BME280;21773;50.010;19.972;2022-07-06T06:56:14;98944.66;;;29.76;38.66
35655;BME280;21773;50.010;19.972;2022-07-06T06:59:20;98946.81;;;29.82;37.94
35655;BME280;21773;50.010;19.972;2022-07-06T07:02:23;98948.56;;;29.87;37.84
35655;BME280;21773;50.010;19.972;2022-07-06T07:05:26;98955.44;;;29.89;37.88
35655;BME280;21773;50.010;19.972;2022-07-06T07:08:30;98944.09;;;29.94;37.45
35655;BME280;21773;50.010;19.972;2022-07-06T07:11:33;98938.75;;;30.01;37.23
35655;BME280;21773;50.010;19.972;2022-07-06T07:14:38;98939.44;;;30.10;37.27
35655;BME280;21773;50.010;19.972;2022-07-06T07:17:41;98932.34;;;30.25;37.41
35655;BME280;21773;50.010;19.972;2022-07-06T07:20:45;98933.97;;;30.38;37.27
35655;BME280;21773;50.010;19.972;2022-07-06T07:23:48;98934.66;;;30.47;36.51
35655;BME280;21773;50.010;19.972;2022-07-06T07:26:52;98941.94;;;30.52;36.74
35655;BME280;21773;50.010;19.972;2022-07-06T07:29:57;98956.53;;;30.61;37.20
35655;BME280;21773;50.010;19.972;2022-07-06T07:33:00;98945.94;;;30.67;36.33
35655;BME280;21773;50.010;19.972;2022-07-06T07:36:04;98956.03;;;30.71;36.29
35655;BME280;21773;50.010;19.972;2022-07-06T07:39:07;98965.75;;;30.77;35.82
35655;BME280;21773;50.010;19.972;2022-07-06T07:42:11;98961.31;;;30.88;36.99
35655;BME280;21773;50.010;19.972;2022-07-06T07:45:20;98962.06;;;31.01;36.99
35655;BME280;21773;50.010;19.972;2022-07-06T07:48:23;98969.59;;;31.13;35.96
35655;BME280;21773;50.010;19.972;2022-07-06T07:51:28;98971.47;;;31.24;36.19
35655;BME280;21773;50.010;19.972;2022-07-06T07:54:31;98938.13;;;31.12;34.85
35655;BME280;21773;50.010;19.972;2022-07-06T07:57:35;98964.22;;;31.35;35.95
35655;BME280;21773;50.010;19.972;2022-07-06T08:00:40;98978.88;;;31.48;35.51
35655;BME280;21773;50.010;19.972;2022-07-06T08:03:44;98965.72;;;31.61;34.03
35655;BME280;21773;50.010;19.972;2022-07-06T08:06:47;98967.19;;;31.70;33.97
35655;BME280;21773;50.010;19.972;2022-07-06T08:09:51;98979.84;;;31.83;34.24
35655;BME280;21773;50.010;19.972;2022-07-06T08:12:54;98976.78;;;31.89;33.65
35655;BME280;21773;50.010;19.972;2022-07-06T08:15:59;98977.25;;;31.91;33.67
35655;BME280;21773;50.010;19.972;2022-07-06T08:19:02;98972.84;;;31.90;33.43
35655;BME280;21773;50.010;19.972;2022-07-06T08:22:12;98969.22;;;31.89;33.36
35655;BME280;21773;50.010;19.972;2022-07-06T08:25:15;98969.78;;;31.95;32.86
35655;BME280;21773;50.010;19.972;2022-07-06T08:28:19;98965.69;;;32.08;32.67
35655;BME280;21773;50.010;19.972;2022-07-06T08:31:24;98976.78;;;32.20;32.97
35655;BME280;21773;50.010;19.972;2022-07-06T08:34:49;98975.41;;;32.30;33.44
35655;BME280;21773;50.010;19.972;2022-07-06T08:37:52;98971.00;;;32.29;32.92
35655;BME280;21773;50.010;19.972;2022-07-06T08:40:56;98970.41;;;32.19;33.06
35655;BME280;21773;50.010;19.972;2022-07-06T08:44:00;98978.28;;;32.02;32.75
35655;BME280;21773;50.010;19.972;2022-07-06T08:47:06;98981.28;;;31.77;33.51
35655;BME280;21773;50.010;19.972;2022-07-06T08:50:15;98980.59;;;31.53;33.89
35655;BME280;21773;50.010;19.972;2022-07-06T08:53:19;98982.63;;;31.24;34.71
35655;BME280;21773;50.010;19.972;2022-07-06T08:56:24;98990.41;;;31.03;35.63
35655;BME280;21773;50.010;19.972;2022-07-06T08:59:28;98998.09;;;30.82;35.56
35655;BME280;21773;50.010;19.972;2022-07-06T09:02:34;98985.72;;;30.67;36.51
35655;BME280;21773;50.010;19.972;2022-07-06T09:05:39;98994.22;;;30.46;36.49
35655;BME280;21773;50.010;19.972;2022-07-06T09:08:43;98980.91;;;30.28;37.68
35655;BME280;21773;50.010;19.972;2022-07-06T09:11:47;98998.19;;;30.09;38.48
35655;BME280;21773;50.010;19.972;2022-07-06T09:14:50;99009.19;;;29.93;38.50
35655;BME280;21773;50.010;19.972;2022-07-06T09:17:56;99014.34;;;29.83;38.61
35655;BME280;21773;50.010;19.972;2022-07-06T09:20:59;99024.75;;;29.74;38.87
35655;BME280;21773;50.010;19.972;2022-07-06T09:24:06;98988.13;;;29.47;39.14
35655;BME280;21773;50.010;19.972;2022-07-06T09:27:15;99022.69;;;29.70;38.33
35655;BME280;21773;50.010;19.972;2022-07-06T09:30:19;99009.38;;;29.76;38.26
35655;BME280;21773;50.010;19.972;2022-07-06T09:33:24;99012.16;;;29.76;37.67
35655;BME280;21773;50.010;19.972;2022-07-06T09:36:42;99003.94;;;29.80;37.71
35655;BME280;21773;50.010;19.972;2022-07-06T09:39:48;99005.13;;;29.91;37.48
35655;BME280;21773;50.010;19.972;2022-07-06T09:43:07;98995.63;;;30.16;37.78
35655;BME280;21773;50.010;19.972;2022-07-06T09:46:10;98991.44;;;30.34;36.67
35655;BME280;21773;50.010;19.972;2022-07-06T09:49:22;99002.09;;;30.57;36.56
35655;BME280;21773;50.010;19.972;2022-07-06T09:52:26;98993.25;;;30.79;36.39
35655;BME280;21773;50.010;19.972;2022-07-06T09:55:29;98994.66;;;31.01;35.79
35655;BME280;21773;50.010;19.972;2022-07-06T09:58:37;98991.06;;;31.12;35.25
35655;BME280;21773;50.010;19.972;2022-07-06T10:02:02;98998.81;;;31.34;35.77
35655;BME280;21773;50.010;19.972;2022-07-06T10:05:08;99003.31;;;31.39;35.23
35655;BME280;21773;50.010;19.972;2022-07-06T10:08:11;99007.66;;;31.36;35.42
35655;BME280;21773;50.010;19.972;2022-07-06T10:11:15;98996.63;;;31.28;33.86
35655;BME280;21773;50.010;19.972;2022-07-06T10:14:20;98991.72;;;31.21;33.49
35655;BME280;21773;50.010;19.972;2022-07-06T10:17:25;98996.22;;;31.26;33.36
35655;BME280;21773;50.010;19.972;2022-07-06T10:20:31;99001.69;;;31.38;33.90
35655;BME280;21773;50.010;19.972;2022-07-06T10:23:35;99003.34;;;31.55;33.27
35655;BME280;21773;50.010;19.972;2022-07-06T10:26:40;99001.06;;;31.72;32.93
35655;BME280;21773;50.010;19.972;2022-07-06T10:29:44;98990.72;;;31.89;32.74
35655;BME280;21773;50.010;19.972;2022-07-06T10:32:49;98993.88;;;32.03;32.14
35655;BME280;21773;50.010;19.972;2022-07-06T10:35:55;98982.00;;;32.06;31.47
35655;BME280;21773;50.010;19.972;2022-07-06T10:38:59;98990.09;;;32.11;30.48
35655;BME280;21773;50.010;19.972;2022-07-06T10:42:42;98987.03;;;32.16;30.66
35655;BME280;21773;50.010;19.972;2022-07-06T10:45:52;98988.38;;;32.22;30.21
35655;BME280;21773;50.010;19.972;2022-07-06T10:48:58;98979.31;;;32.25;30.43
35655;BME280;21773;50.010;19.972;2022-07-06T10:52:04;98979.03;;;32.30;30.65
35655;BME280;21773;50.010;19.972;2022-07-06T10:55:30;98980.34;;;32.36;30.16
35655;BME280;21773;50.010;19.972;2022-07-06T10:58:35;98985.75;;;32.45;29.99
35655;BME280;21773;50.010;19.972;2022-07-06T11:01:39;98993.97;;;32.57;29.61
35655;BME280;21773;50.010;19.972;2022-07-06T11:04:48;98991.44;;;32.67;29.44
35655;BME280;21773;50.010;19.972;2022-07-06T11:08:01;98988.91;;;32.78;29.97
35655;BME280;21773;50.010;19.972;2022-07-06T11:11:10;98990.44;;;32.95;29.97
35655;BME280;21773;50.010;19.972;2022-07-06T11:14:16;98992.13;;;32.99;29.81
35655;BME280;21773;50.010;19.972;2022-07-06T11:17:20;98993.16;;;32.91;29.19
35655;BME280;21773;50.010;19.972;2022-07-06T11:20:24;98999.09;;;32.90;29.11
35655;BME280;21773;50.010;19.972;2022-07-06T11:23:30;98991.09;;;32.88;29.55
35655;BME280;21773;50.010;19.972;2022-07-06T11:26:34;98992.22;;;32.84;29.42
35655;BME280;21773;50.010;19.972;2022-07-06T11:29:41;98989.25;;;32.77;29.21
35655;BME280;21773;50.010;19.972;2022-07-06T11:32:47;98987.56;;;32.56;29.61
35655;BME280;21773;50.010;19.972;2022-07-06T11:35:50;98984.81;;;32.41;30.03
35655;BME280;21773;50.010;19.972;2022-07-06T11:38:55;98977.75;;;32.28;30.56
35655;BME280;21773;50.010;19.972;2022-07-06T11:41:59;98989.44;;;32.33;30.69
35655;BME280;21773;50.010;19.972;2022-07-06T11:45:04;98983.25;;;32.24;30.73
35655;BME280;21773;50.010;19.972;2022-07-06T11:48:11;98972.31;;;32.15;30.52
35655;BME280;21773;50.010;19.972;2022-07-06T11:51:15;98993.16;;;32.06;30.64
35655;BME280;21773;50.010;19.972;2022-07-06T11:54:21;98986.44;;;31.91;30.73
35655;BME280;21773;50.010;19.972;2022-07-06T11:57:26;99001.25;;;31.79;31.38
35655;BME280;21773;50.010;19.972;2022-07-06T12:00:32;98996.22;;;31.69;31.32
35655;BME280;21773;50.010;19.972;2022-07-06T12:03:44;98997.22;;;31.61;32.22
35655;BME280;21773;50.010;19.972;2022-07-06T12:06:47;98990.22;;;31.55;33.12
35655;BME280;21773;50.010;19.972;2022-07-06T12:09:52;98989.13;;;31.44;32.34
35655;BME280;21773;50.010;19.972;2022-07-06T12:13:02;98986.06;;;31.33;32.63
35655;BME280;21773;50.010;19.972;2022-07-06T12:16:11;98983.19;;;31.30;32.21
35655;BME280;21773;50.010;19.972;2022-07-06T12:19:16;98977.97;;;31.28;32.21
35655;BME280;21773;50.010;19.972;2022-07-06T12:22:24;98937.94;;;31.05;31.27
35655;BME280;21773;50.010;19.972;2022-07-06T12:25:33;98959.91;;;31.22;30.83
35655;BME280;21773;50.010;19.972;2022-07-06T12:28:36;98968.81;;;31.44;31.09
35655;BME280;21773;50.010;19.972;2022-07-06T12:31:41;98963.66;;;31.58;30.72
35655;BME280;21773;50.010;19.972;2022-07-06T12:34:45;98962.50;;;31.74;30.97
35655;BME280;21773;50.010;19.972;2022-07-06T12:37:54;98964.66;;;31.81;30.76
35655;BME280;21773;50.010;19.972;2022-07-06T12:40:59;98962.91;;;31.92;30.78
35655;BME280;21773;50.010;19.972;2022-07-06T12:44:06;98956.78;;;32.02;30.63
35655;BME280;21773;50.010;19.972;2022-07-06T12:47:10;98954.00;;;32.18;29.99
35655;BME280;21773;50.010;19.972;2022-07-06T12:50:13;98945.94;;;32.13;29.33
35655;BME280;21773;50.010;19.972;2022-07-06T12:53:24;98961.75;;;32.24;29.75
35655;BME280;21773;50.010;19.972;2022-07-06T12:56:29;98956.97;;;32.25;29.05
35655;BME280;21773;50.010;19.972;2022-07-06T12:59:35;98954.69;;;32.31;29.13
35655;BME280;21773;50.010;19.972;2022-07-06T13:02:39;98954.94;;;32.41;28.68
35655;BME280;21773;50.010;19.972;2022-07-06T13:06:03;98946.81;;;32.52;28.04
35655;BME280;21773;50.010;19.972;2022-07-06T13:09:07;98950.66;;;32.63;27.86
35655;BME280;21773;50.010;19.972;2022-07-06T13:12:12;98954.50;;;32.74;27.54
35655;BME280;21773;50.010;19.972;2022-07-06T13:15:15;98953.84;;;32.81;28.02
35655;BME280;21773;50.010;19.972;2022-07-06T13:18:19;98965.38;;;32.79;27.74
35655;BME280;21773;50.010;19.972;2022-07-06T13:21:22;98978.81;;;32.74;27.59
35655;BME280;21773;50.010;19.972;2022-07-06T13:24:25;98953.94;;;32.49;27.37
35655;BME280;21773;50.010;19.972;2022-07-06T13:27:31;98971.94;;;32.52;27.82
35655;BME280;21773;50.010;19.972;2022-07-06T13:30:34;98969.72;;;32.42;27.59
35655;BME280;21773;50.010;19.972;2022-07-06T13:33:38;98968.47;;;32.39;27.65
35655;BME280;21773;50.010;19.972;2022-07-06T13:36:42;98970.81;;;32.37;27.40
35655;BME280;21773;50.010;19.972;2022-07-06T13:39:45;98971.09;;;32.32;27.91
35655;BME280;21773;50.010;19.972;2022-07-06T13:42:50;98971.09;;;32.32;27.48
35655;BME280;21773;50.010;19.972;2022-07-06T13:45:56;98974.75;;;32.36;26.74
35655;BME280;21773;50.010;19.972;2022-07-06T13:48:59;98980.88;;;32.42;26.81
35655;BME280;21773;50.010;19.972;2022-07-06T13:52:03;98980.22;;;32.48;26.98
35655;BME280;21773;50.010;19.972;2022-07-06T13:55:08;98979.94;;;32.53;26.01
35655;BME280;21773;50.010;19.972;2022-07-06T13:58:13;98986.41;;;32.57;26.94
35655;BME280;21773;50.010;19.972;2022-07-06T14:01:16;98984.97;;;32.63;27.24
35655;BME280;21773;50.010;19.972;2022-07-06T14:04:26;98979.47;;;32.67;27.36
35655;BME280;21773;50.010;19.972;2022-07-06T14:07:29;98972.16;;;32.62;26.92
35655;BME280;21773;50.010;19.972;2022-07-06T14:10:33;98975.25;;;32.57;27.08
35655;BME280;21773;50.010;19.972;2022-07-06T14:13:38;98981.47;;;32.51;27.52
35655;BME280;21773;50.010;19.972;2022-07-06T14:16:42;98985.56;;;32.38;27.19
35655;BME280;21773;50.010;19.972;2022-07-06T14:19:45;98982.09;;;32.25;27.21
35655;BME280;21773;50.010;19.972;2022-07-06T14:22:49;98984.88;;;32.09;27.46
35655;BME280;21773;50.010;19.972;2022-07-06T14:25:52;98958.28;;;31.80;27.34
35655;BME280;21773;50.010;19.972;2022-07-06T14:28:58;98988.41;;;31.75;27.78
35655;BME280;21773;50.010;19.972;2022-07-06T14:32:01;98992.78;;;31.60;27.97
35655;BME280;21773;50.010;19.972;2022-07-06T14:35:07;98986.88;;;31.34;29.68
35655;BME280;21773;50.010;19.972;2022-07-06T14:38:10;99011.56;;;31.20;29.84
35655;BME280;21773;50.010;19.972;2022-07-06T14:41:14;99021.25;;;30.98;30.76
35655;BME280;21773;50.010;19.972;2022-07-06T14:44:18;99031.66;;;30.73;31.58
35655;BME280;21773;50.010;19.972;2022-07-06T14:47:22;99026.56;;;30.51;32.52
35655;BME280;21773;50.010;19.972;2022-07-06T14:50:25;99022.38;;;30.33;32.71
35655;BME280;21773;50.010;19.972;2022-07-06T14:53:28;98999.09;;;30.13;33.29
35655;BME280;21773;50.010;19.972;2022-07-06T14:56:33;99017.88;;;30.16;33.83
35655;BME280;21773;50.010;19.972;2022-07-06T14:59:37;98986.31;;;29.88;34.38
35655;BME280;21773;50.010;19.972;2022-07-06T15:02:41;99017.66;;;30.09;34.35
35655;BME280;21773;50.010;19.972;2022-07-06T15:05:44;99015.00;;;30.00;34.50
35655;BME280;21773;50.010;19.972;2022-07-06T15:08:49;99012.31;;;29.92;35.14
35655;BME280;21773;50.010;19.972;2022-07-06T15:11:52;99018.56;;;29.89;34.14
35655;BME280;21773;50.010;19.972;2022-07-06T15:14:57;99015.16;;;29.83;34.23
35655;BME280;21773;50.010;19.972;2022-07-06T15:18:01;99020.84;;;29.75;33.49
35655;BME280;21773;50.010;19.972;2022-07-06T15:21:04;99025.75;;;29.57;34.42
35655;BME280;21773;50.010;19.972;2022-07-06T15:24:08;99026.16;;;29.35;34.24
35655;BME280;21773;50.010;19.972;2022-07-06T15:27:11;99012.19;;;29.22;35.88
35655;BME280;21773;50.010;19.972;2022-07-06T15:30:16;99007.09;;;29.12;36.71
35655;BME280;21773;50.010;19.972;2022-07-06T15:33:31;98992.81;;;29.02;36.92
35655;BME280;21773;50.010;19.972;2022-07-06T15:36:34;98997.16;;;28.91;36.30
35655;BME280;21773;50.010;19.972;2022-07-06T15:39:38;98988.31;;;28.76;37.08
35655;BME280;21773;50.010;19.972;2022-07-06T15:42:41;98986.22;;;28.73;36.92
35655;BME280;21773;50.010;19.972;2022-07-06T15:45:46;98989.50;;;28.67;37.42
35655;BME280;21773;50.010;19.972;2022-07-06T15:48:49;98991.44;;;28.66;36.93
35655;BME280;21773;50.010;19.972;2022-07-06T15:51:53;98985.63;;;28.59;37.40
35655;BME280;21773;50.010;19.972;2022-07-06T15:54:56;98993.94;;;28.59;37.12
35655;BME280;21773;50.010;19.972;2022-07-06T15:57:59;98991.03;;;28.56;37.10
35655;BME280;21773;50.010;19.972;2022-07-06T16:01:04;98986.38;;;28.48;37.27
35655;BME280;21773;50.010;19.972;2022-07-06T16:04:08;98997.13;;;28.49;36.86
35655;BME280;21773;50.010;19.972;2022-07-06T16:07:12;98999.22;;;28.52;36.52